createdAt,value
2017-08-26T00:00:30.346Z,0.00
2017-08-26T00:01:30.333Z,0.00
2017-08-26T00:02:25.531Z,0.00
2017-08-26T00:03:20.459Z,0.00
2017-08-26T00:04:20.518Z,0.00
2017-08-26T00:05:14.549Z,0.00
2017-08-26T00:06:14.651Z,0.00
2017-08-26T00:07:14.855Z,0.00
2017-08-26T00:08:09.622Z,0.00
2017-08-26T00:08:58.684Z,0.00
2017-08-26T00:09:58.649Z,0.00
2017-08-26T00:10:52.802Z,0.00
2017-08-26T00:11:47.775Z,0.00
2017-08-26T00:12:35.951Z,0.00
2017-08-26T00:13:23.944Z,0.00
2017-08-26T00:14:12.855Z,0.00
2017-08-26T00:15:07.859Z,0.00
2017-08-26T00:16:01.985Z,0.00
2017-08-26T00:17:02.036Z,0.00
2017-08-26T00:17:55.984Z,0.00
2017-08-26T00:18:45.105Z,0.00
2017-08-26T00:19:33.127Z,0.00
2017-08-26T00:20:22.266Z,0.00
2017-08-26T00:21:16.211Z,0.00
2017-08-26T00:22:11.266Z,0.00
2017-08-26T00:23:00.264Z,0.00
2017-08-26T00:23:54.358Z,0.00
2017-08-26T00:24:48.480Z,0.00
2017-08-26T00:25:48.395Z,0.00
2017-08-26T00:26:43.428Z,0.00
2017-08-26T00:27:43.484Z,0.00
2017-08-26T00:28:31.593Z,0.00
2017-08-26T00:29:20.558Z,0.00
2017-08-26T00:30:08.651Z,0.00
2017-08-26T00:30:56.699Z,0.00
2017-08-26T00:31:45.773Z,0.00
2017-08-26T00:32:33.937Z,0.00
2017-08-26T00:33:21.815Z,0.00
2017-08-26T00:34:09.869Z,0.00
2017-08-26T00:34:57.856Z,0.00
2017-08-26T00:35:45.984Z,0.00
2017-08-26T00:36:34.120Z,0.00
2017-08-26T00:37:22.011Z,0.00
2017-08-26T00:38:11.150Z,0.00
2017-08-26T00:38:59.231Z,0.00
2017-08-26T00:39:47.257Z,0.00
2017-08-26T00:40:36.220Z,0.00
2017-08-26T00:41:24.266Z,0.00
2017-08-26T00:42:12.401Z,0.00
2017-08-26T00:43:01.360Z,0.00
2017-08-26T00:43:49.484Z,0.00
2017-08-26T00:44:37.529Z,0.00
2017-08-26T00:45:25.510Z,0.00
2017-08-26T00:46:14.598Z,0.00
2017-08-26T00:47:02.639Z,0.00
2017-08-26T00:47:51.624Z,0.00
2017-08-26T00:48:39.706Z,0.00
2017-08-26T00:49:27.734Z,0.00
2017-08-26T00:50:15.846Z,0.00
2017-08-26T00:51:03.882Z,0.00
2017-08-26T00:51:57.951Z,0.00
2017-08-26T00:52:58.967Z,0.00
2017-08-26T00:53:58.919Z,0.00
2017-08-26T00:54:46.984Z,0.00
2017-08-26T00:55:35.105Z,0.00
2017-08-26T00:56:24.223Z,0.00
2017-08-26T00:57:12.186Z,0.00
2017-08-26T00:58:06.177Z,0.00
2017-08-26T00:58:55.233Z,0.00
2017-08-26T00:59:49.275Z,0.00
2017-08-26T01:00:37.275Z,0.00
2017-08-26T01:01:26.625Z,0.00
2017-08-26T01:02:26.474Z,0.00
2017-08-26T01:03:20.378Z,0.00
2017-08-26T01:04:09.467Z,0.00
2017-08-26T01:04:58.572Z,0.00
2017-08-26T01:05:46.617Z,0.00
2017-08-26T01:06:34.661Z,0.00
2017-08-26T01:07:22.751Z,0.00
2017-08-26T01:08:10.720Z,0.00
2017-08-26T01:08:58.774Z,0.00
2017-08-26T01:09:53.777Z,0.00
2017-08-26T01:10:41.792Z,0.00
2017-08-26T01:11:35.883Z,0.00
2017-08-26T01:12:24.900Z,0.00
2017-08-26T01:13:12.887Z,0.00
2017-08-26T01:14:07.009Z,0.00
2017-08-26T01:14:55.054Z,0.00
2017-08-26T01:15:44.159Z,0.00
2017-08-26T01:16:32.083Z,0.00
2017-08-26T01:17:26.302Z,0.00
2017-08-26T01:18:26.295Z,0.00
2017-08-26T01:19:15.309Z,0.00
2017-08-26T01:20:03.342Z,0.00
2017-08-26T01:21:03.452Z,0.00
2017-08-26T01:21:58.457Z,0.00
2017-08-26T01:22:58.438Z,0.00
2017-08-26T01:23:53.528Z,0.00
2017-08-26T01:24:48.565Z,0.00
2017-08-26T01:25:48.594Z,0.00
2017-08-26T01:26:43.617Z,0.00
2017-08-26T01:27:38.709Z,0.00
2017-08-26T01:28:39.639Z,0.00
2017-08-26T01:29:39.699Z,0.00
2017-08-26T01:30:39.858Z,0.00
2017-08-26T01:31:34.830Z,0.00
2017-08-26T01:32:28.730Z,0.00
2017-08-26T01:33:28.881Z,0.00
2017-08-26T01:34:23.955Z,0.00
2017-08-26T01:35:23.951Z,0.00
2017-08-26T01:36:18.236Z,0.00
2017-08-26T01:37:07.176Z,0.00
2017-08-26T01:38:01.045Z,0.00
2017-08-26T01:38:55.081Z,0.00
2017-08-26T01:39:44.107Z,0.00
2017-08-26T01:40:32.151Z,0.00
2017-08-26T01:41:26.317Z,0.00
2017-08-26T01:42:20.306Z,0.00
2017-08-26T01:43:09.296Z,0.00
2017-08-26T01:44:15.366Z,0.00
2017-08-26T01:45:10.374Z,0.00
2017-08-26T01:46:10.471Z,0.00
2017-08-26T01:46:59.409Z,0.00
2017-08-26T01:47:47.585Z,0.00
2017-08-26T01:48:35.535Z,0.00
2017-08-26T01:49:29.602Z,0.00
2017-08-26T01:50:29.594Z,0.00
2017-08-26T01:51:23.643Z,0.00
2017-08-26T01:52:17.905Z,0.00
2017-08-26T01:53:05.822Z,0.00
2017-08-26T01:54:00.857Z,0.00
2017-08-26T01:54:55.910Z,0.00
2017-08-26T01:55:49.955Z,0.00
2017-08-26T01:56:43.971Z,0.00
2017-08-26T01:57:38.965Z,0.00
2017-08-26T01:58:28.001Z,0.00
2017-08-26T01:59:17.139Z,0.00
2017-08-26T02:00:17.058Z,0.00
2017-08-26T02:01:12.171Z,0.00
2017-08-26T02:02:06.295Z,0.00
2017-08-26T02:03:01.297Z,0.00
2017-08-26T02:03:55.287Z,0.00
2017-08-26T02:04:49.327Z,0.00
2017-08-26T02:05:38.413Z,0.00
2017-08-26T02:06:32.477Z,0.00
2017-08-26T02:07:21.455Z,0.00
2017-08-26T02:08:15.514Z,0.00
2017-08-26T02:09:04.504Z,0.00
2017-08-26T02:09:53.583Z,0.00
2017-08-26T02:10:48.592Z,0.00
2017-08-26T02:11:37.771Z,0.00
2017-08-26T02:12:25.731Z,0.00
2017-08-26T02:13:19.741Z,0.00
2017-08-26T02:14:08.739Z,0.00
2017-08-26T02:15:02.843Z,0.00
2017-08-26T02:15:51.893Z,0.00
2017-08-26T02:16:45.908Z,0.00
2017-08-26T02:17:39.965Z,0.00
2017-08-26T02:18:40.110Z,0.00
2017-08-26T02:19:35.026Z,0.00
2017-08-26T02:20:30.206Z,0.00
2017-08-26T02:21:31.127Z,0.00
2017-08-26T02:22:31.073Z,0.00
2017-08-26T02:23:31.187Z,0.00
2017-08-26T02:24:26.182Z,0.00
2017-08-26T02:25:20.259Z,0.00
2017-08-26T02:26:20.220Z,0.00
2017-08-26T02:27:15.352Z,0.00
2017-08-26T02:28:10.344Z,0.00
2017-08-26T02:28:58.390Z,0.00
2017-08-26T02:29:47.405Z,0.00
2017-08-26T02:30:35.498Z,0.00
2017-08-26T02:31:23.558Z,0.00
2017-08-26T02:32:11.521Z,0.00
2017-08-26T02:33:00.613Z,0.00
2017-08-26T02:33:55.812Z,0.00
2017-08-26T02:34:50.718Z,0.00
2017-08-26T02:35:39.797Z,0.00
2017-08-26T02:36:27.844Z,0.00
2017-08-26T02:37:15.973Z,0.00
2017-08-26T02:38:04.587Z,0.00
2017-08-26T02:38:52.378Z,0.00
2017-08-26T02:39:41.843Z,0.00
2017-08-26T02:40:29.956Z,0.00
2017-08-26T02:41:23.910Z,0.00
2017-08-26T02:42:12.274Z,0.00
2017-08-26T02:43:01.207Z,0.00
2017-08-26T02:43:50.261Z,0.00
2017-08-26T02:44:44.660Z,0.00
2017-08-26T02:45:39.304Z,0.00
2017-08-26T02:46:28.002Z,0.00
2017-08-26T02:47:21.725Z,0.00
2017-08-26T02:48:09.980Z,0.00
2017-08-26T02:48:58.173Z,0.00
2017-08-26T02:49:45.978Z,0.00
2017-08-26T02:50:35.238Z,0.00
2017-08-26T02:51:23.309Z,0.00
2017-08-26T02:52:12.646Z,0.00
2017-08-26T02:53:01.433Z,0.00
2017-08-26T02:53:56.286Z,0.00
2017-08-26T02:54:51.562Z,0.00
2017-08-26T02:55:45.214Z,0.00
2017-08-26T02:56:39.806Z,0.00
2017-08-26T02:57:34.712Z,0.00
2017-08-26T02:58:28.670Z,0.00
2017-08-26T02:59:23.415Z,0.00
2017-08-26T03:00:17.918Z,0.00
2017-08-26T03:01:11.510Z,0.00
2017-08-26T03:02:07.065Z,0.00
2017-08-26T03:02:56.114Z,0.00
2017-08-26T03:03:45.106Z,0.00
2017-08-26T03:04:33.075Z,0.00
2017-08-26T03:05:21.938Z,0.00
2017-08-26T03:06:09.965Z,0.00
2017-08-26T03:06:58.306Z,0.00
2017-08-26T03:07:46.357Z,0.00
2017-08-26T03:08:35.431Z,0.00
2017-08-26T03:09:23.363Z,0.00
2017-08-26T03:10:11.473Z,0.00
2017-08-26T03:11:00.648Z,0.00
2017-08-26T03:11:48.497Z,0.00
2017-08-26T03:12:36.596Z,0.00
2017-08-26T03:13:25.645Z,0.00
2017-08-26T03:14:13.697Z,0.00
2017-08-26T03:15:01.682Z,0.00
2017-08-26T03:15:50.851Z,0.00
2017-08-26T03:16:38.774Z,0.00
2017-08-26T03:17:26.901Z,0.00
2017-08-26T03:18:15.905Z,0.00
2017-08-26T03:19:03.974Z,0.00
2017-08-26T03:19:52.034Z,0.00
2017-08-26T03:20:41.137Z,0.00
2017-08-26T03:21:29.023Z,0.00
2017-08-26T03:22:17.326Z,0.00
2017-08-26T03:23:06.272Z,0.00
2017-08-26T03:23:54.232Z,0.00
2017-08-26T03:24:42.323Z,0.00
2017-08-26T03:25:31.339Z,0.00
2017-08-26T03:26:19.397Z,0.00
2017-08-26T03:27:07.403Z,0.00
2017-08-26T03:27:56.552Z,0.00
2017-08-26T03:28:44.535Z,0.00
2017-08-26T03:29:32.526Z,0.00
2017-08-26T03:30:32.614Z,0.00
2017-08-26T03:31:20.719Z,0.00
2017-08-26T03:32:14.717Z,0.00
2017-08-26T03:33:03.684Z,0.00
2017-08-26T03:34:03.735Z,0.00
2017-08-26T03:34:57.778Z,0.00
2017-08-26T03:35:51.877Z,0.00
2017-08-26T03:36:45.921Z,0.00
2017-08-26T03:37:40.019Z,0.00
2017-08-26T03:38:29.033Z,0.00
2017-08-26T03:39:17.855Z,0.00
2017-08-26T03:40:05.858Z,0.00
2017-08-26T03:41:06.081Z,0.00
2017-08-26T03:41:55.145Z,0.00
2017-08-26T03:42:50.274Z,0.00
2017-08-26T03:43:38.374Z,0.00
2017-08-26T03:44:26.316Z,0.00
2017-08-26T03:45:15.417Z,0.00
2017-08-26T03:46:03.468Z,0.00
2017-08-26T03:46:52.564Z,0.00
2017-08-26T03:47:40.597Z,0.00
2017-08-26T03:48:28.684Z,0.00
2017-08-26T03:49:16.648Z,0.00
2017-08-26T03:50:05.776Z,0.00
2017-08-26T03:50:53.701Z,0.00
2017-08-26T03:51:41.680Z,0.00
2017-08-26T03:52:30.844Z,0.00
2017-08-26T03:53:18.919Z,0.00
2017-08-26T03:54:06.916Z,0.00
2017-08-26T03:54:56.078Z,0.00
2017-08-26T03:55:49.989Z,0.00
2017-08-26T03:56:38.063Z,0.00
2017-08-26T03:57:27.059Z,0.00
2017-08-26T03:58:16.063Z,0.00
2017-08-26T03:59:04.142Z,0.00
2017-08-26T03:59:52.271Z,0.00
2017-08-26T04:00:41.402Z,0.00
2017-08-26T04:01:29.252Z,0.00
2017-08-26T04:02:18.426Z,0.00
2017-08-26T04:03:06.251Z,0.00
2017-08-26T04:03:54.383Z,0.00
2017-08-26T04:04:42.443Z,0.00
2017-08-26T04:05:30.507Z,0.00
2017-08-26T04:06:24.684Z,0.00
2017-08-26T04:07:13.627Z,0.00
2017-08-26T04:08:01.623Z,0.00
2017-08-26T04:08:49.735Z,0.00
2017-08-26T04:09:38.691Z,0.00
2017-08-26T04:10:26.889Z,0.00
2017-08-26T04:11:21.836Z,0.00
2017-08-26T04:12:16.942Z,0.00
2017-08-26T04:13:10.953Z,0.00
2017-08-26T04:14:05.959Z,0.00
2017-08-26T04:15:00.032Z,0.00
2017-08-26T04:15:54.955Z,0.00
2017-08-26T04:16:49.131Z,0.00
2017-08-26T04:17:44.038Z,0.00
2017-08-26T04:18:38.156Z,0.00
2017-08-26T04:19:32.171Z,0.00
2017-08-26T04:20:27.214Z,0.00
2017-08-26T04:21:21.226Z,0.00
2017-08-26T04:22:16.175Z,0.00
2017-08-26T04:23:16.408Z,0.00
2017-08-26T04:24:11.362Z,0.00
2017-08-26T04:25:05.302Z,0.00
2017-08-26T04:26:00.371Z,0.00
2017-08-26T04:26:54.572Z,0.00
2017-08-26T04:27:49.515Z,0.00
2017-08-26T04:28:43.606Z,0.00
2017-08-26T04:29:37.647Z,0.00
2017-08-26T04:30:32.706Z,0.00
2017-08-26T04:31:26.693Z,0.00
2017-08-26T04:32:26.747Z,0.00
2017-08-26T04:33:21.815Z,0.00
2017-08-26T04:34:16.771Z,0.00
2017-08-26T04:35:16.902Z,0.00
2017-08-26T04:36:11.846Z,0.00
2017-08-26T04:37:06.993Z,0.01
2017-08-26T04:38:06.888Z,0.01
2017-08-26T04:39:02.006Z,0.01
2017-08-26T04:39:56.043Z,0.01
2017-08-26T04:40:51.067Z,0.01
2017-08-26T04:41:45.115Z,0.01
2017-08-26T04:42:39.203Z,0.01
2017-08-26T04:43:34.210Z,0.01
2017-08-26T04:44:28.257Z,0.01
2017-08-26T04:45:22.281Z,0.01
2017-08-26T04:46:17.258Z,0.01
2017-08-26T04:47:11.287Z,0.01
2017-08-26T04:48:11.405Z,0.02
2017-08-26T04:49:06.484Z,0.02
2017-08-26T04:50:01.496Z,0.02
2017-08-26T04:50:55.474Z,0.02
2017-08-26T04:51:50.646Z,0.02
2017-08-26T04:52:50.645Z,0.02
2017-08-26T04:53:45.618Z,0.02
2017-08-26T04:54:40.700Z,0.02
2017-08-26T04:55:34.679Z,0.02
2017-08-26T04:56:28.745Z,0.02
2017-08-26T04:57:23.825Z,0.02
2017-08-26T04:58:23.956Z,0.02
2017-08-26T04:59:18.624Z,0.02
2017-08-26T05:00:13.966Z,0.02
2017-08-26T05:01:14.059Z,0.02
2017-08-26T05:02:08.900Z,0.02
2017-08-26T05:03:03.048Z,0.02
2017-08-26T05:03:58.177Z,0.02
2017-08-26T05:04:52.070Z,0.02
2017-08-26T05:05:47.202Z,0.02
2017-08-26T05:06:41.281Z,0.02
2017-08-26T05:07:35.254Z,0.02
2017-08-26T05:08:30.228Z,0.02
2017-08-26T05:09:24.341Z,0.02
2017-08-26T05:10:18.502Z,0.02
2017-08-26T05:11:13.400Z,0.02
2017-08-26T05:12:13.495Z,0.02
2017-08-26T05:13:08.470Z,0.02
2017-08-26T05:14:03.479Z,0.02
2017-08-26T05:14:57.555Z,0.02
2017-08-26T05:15:51.632Z,0.02
2017-08-26T05:16:46.602Z,0.02
2017-08-26T05:17:40.706Z,0.03
2017-08-26T05:18:42.357Z,0.03
2017-08-26T05:19:34.649Z,0.03
2017-08-26T05:20:28.879Z,0.03
2017-08-26T05:21:22.866Z,0.03
2017-08-26T05:22:16.816Z,0.03
2017-08-26T05:23:11.849Z,0.03
2017-08-26T05:24:11.937Z,0.03
2017-08-26T05:25:07.097Z,0.03
2017-08-26T05:26:01.987Z,0.03
2017-08-26T05:27:02.074Z,0.02
2017-08-26T05:27:57.134Z,0.02
2017-08-26T05:28:52.152Z,0.02
2017-08-26T05:29:46.125Z,0.02
2017-08-26T05:30:40.221Z,0.02
2017-08-26T05:31:35.324Z,0.02
2017-08-26T05:32:29.185Z,0.02
2017-08-26T05:33:23.345Z,0.02
2017-08-26T05:34:18.369Z,0.02
2017-08-26T05:35:12.345Z,0.02
2017-08-26T05:36:07.462Z,0.02
2017-08-26T05:37:01.445Z,0.02
2017-08-26T05:37:55.553Z,0.02
2017-08-26T05:38:50.540Z,0.02
2017-08-26T05:39:50.588Z,0.02
2017-08-26T05:40:45.685Z,0.02
2017-08-26T05:41:39.698Z,0.02
2017-08-26T05:42:34.686Z,0.02
2017-08-26T05:43:28.652Z,0.02
2017-08-26T05:44:22.765Z,0.02
2017-08-26T05:45:17.854Z,0.02
2017-08-26T05:46:11.889Z,0.02
2017-08-26T05:47:05.906Z,0.02
2017-08-26T05:48:00.837Z,0.03
2017-08-26T05:48:55.001Z,0.03
2017-08-26T05:49:55.111Z,0.03
2017-08-26T05:50:44.053Z,0.03
2017-08-26T05:51:38.330Z,0.03
2017-08-26T05:52:38.145Z,0.03
2017-08-26T05:53:32.131Z,0.03
2017-08-26T05:54:32.245Z,0.03
2017-08-26T05:55:27.332Z,0.03
2017-08-26T05:56:21.326Z,0.04
2017-08-26T05:57:16.345Z,0.04
2017-08-26T05:58:05.368Z,0.04
2017-08-26T05:58:59.481Z,0.04
2017-08-26T06:00:05.412Z,0.05
2017-08-26T06:01:00.562Z,0.05
2017-08-26T06:01:49.528Z,0.05
2017-08-26T06:02:44.660Z,0.05
2017-08-26T06:03:39.798Z,0.06
2017-08-26T06:04:27.813Z,0.06
2017-08-26T06:05:16.792Z,0.06
2017-08-26T06:06:10.786Z,0.06
2017-08-26T06:07:04.841Z,0.06
2017-08-26T06:08:00.013Z,0.06
2017-08-26T06:08:54.933Z,0.06
2017-08-26T06:09:48.966Z,0.06
2017-08-26T06:10:49.063Z,0.06
2017-08-26T06:11:38.210Z,0.06
2017-08-26T06:12:27.188Z,0.07
2017-08-26T06:13:21.197Z,0.07
2017-08-26T06:14:21.229Z,0.08
2017-08-26T06:15:15.332Z,0.08
2017-08-26T06:16:10.332Z,0.08
2017-08-26T06:17:10.310Z,0.09
2017-08-26T06:18:04.412Z,0.09
2017-08-26T06:18:59.367Z,0.10
2017-08-26T06:19:54.532Z,0.11
2017-08-26T06:20:42.462Z,0.11
2017-08-26T06:21:37.625Z,0.11
2017-08-26T06:22:37.570Z,0.11
2017-08-26T06:23:26.634Z,0.11
2017-08-26T06:24:15.894Z,0.11
2017-08-26T06:25:03.714Z,0.11
2017-08-26T06:25:51.778Z,0.12
2017-08-26T06:26:46.964Z,0.12
2017-08-26T06:27:40.850Z,0.12
2017-08-26T06:28:29.956Z,0.13
2017-08-26T06:29:19.060Z,0.13
2017-08-26T06:30:08.003Z,0.13
2017-08-26T06:30:56.097Z,0.13
2017-08-26T06:31:56.164Z,0.13
2017-08-26T06:32:51.159Z,0.13
2017-08-26T06:33:46.113Z,0.14
2017-08-26T06:34:46.248Z,0.14
2017-08-26T06:35:46.291Z,0.15
2017-08-26T06:36:40.386Z,0.15
2017-08-26T06:37:41.270Z,0.15
2017-08-26T06:38:41.329Z,0.16
2017-08-26T06:39:41.395Z,0.16
2017-08-26T06:40:41.458Z,0.17
2017-08-26T06:41:41.619Z,0.17
2017-08-26T06:42:41.542Z,0.17
2017-08-26T06:43:41.625Z,0.17
2017-08-26T06:44:41.608Z,0.17
2017-08-26T06:45:36.691Z,0.17
2017-08-26T06:46:37.843Z,0.18
2017-08-26T06:47:31.719Z,0.18
2017-08-26T06:48:26.763Z,0.18
2017-08-26T06:49:21.791Z,0.22
2017-08-26T06:50:21.919Z,0.25
2017-08-26T06:51:17.013Z,0.26
2017-08-26T06:52:11.961Z,0.27
2017-08-26T06:53:05.973Z,0.28
2017-08-26T06:54:01.088Z,0.30
2017-08-26T06:55:01.217Z,0.30
2017-08-26T06:55:50.118Z,0.31
2017-08-26T06:56:38.305Z,0.30
2017-08-26T06:57:38.576Z,0.29
2017-08-26T06:58:38.319Z,0.27
2017-08-26T06:59:32.336Z,0.27
2017-08-26T07:00:26.326Z,0.28
2017-08-26T07:01:20.354Z,0.31
2017-08-26T07:02:08.496Z,0.31
2017-08-26T07:03:08.453Z,0.33
2017-08-26T07:03:56.578Z,0.31
2017-08-26T07:04:45.664Z,0.32
2017-08-26T07:05:40.674Z,0.30
2017-08-26T07:06:29.781Z,0.24
2017-08-26T07:07:29.699Z,0.24
2017-08-26T07:08:17.896Z,0.25
2017-08-26T07:09:11.837Z,0.25
2017-08-26T07:10:05.904Z,0.25
2017-08-26T07:10:59.957Z,0.24
2017-08-26T07:11:54.044Z,0.24
2017-08-26T07:12:42.964Z,0.24
2017-08-26T07:13:37.140Z,0.26
2017-08-26T07:14:32.217Z,0.29
2017-08-26T07:15:26.254Z,0.26
2017-08-26T07:16:27.353Z,0.26
2017-08-26T07:17:22.365Z,0.27
2017-08-26T07:18:16.390Z,0.29
2017-08-26T07:19:05.432Z,0.32
2017-08-26T07:19:59.523Z,0.31
2017-08-26T07:20:54.580Z,0.28
2017-08-26T07:21:42.635Z,0.28
2017-08-26T07:22:36.685Z,0.31
2017-08-26T07:23:30.747Z,0.32
2017-08-26T07:24:18.795Z,0.38
2017-08-26T07:25:07.872Z,0.37
2017-08-26T07:26:01.812Z,0.41
2017-08-26T07:26:49.973Z,0.41
2017-08-26T07:27:38.004Z,0.39
2017-08-26T07:28:33.168Z,0.31
2017-08-26T07:29:27.098Z,0.31
2017-08-26T07:30:21.187Z,0.33
2017-08-26T07:31:15.222Z,0.33
2017-08-26T07:32:03.375Z,0.31
2017-08-26T07:32:57.390Z,0.28
2017-08-26T07:33:51.392Z,0.28
2017-08-26T07:34:51.513Z,0.25
2017-08-26T07:35:45.443Z,0.25
2017-08-26T07:36:39.555Z,0.26
2017-08-26T07:37:28.583Z,0.27
2017-08-26T07:38:22.717Z,0.28
2017-08-26T07:39:22.662Z,0.29
2017-08-26T07:40:16.858Z,0.30
2017-08-26T07:41:10.925Z,0.29
2017-08-26T07:42:04.853Z,0.30
2017-08-26T07:42:53.017Z,0.29
2017-08-26T07:43:41.978Z,0.29
2017-08-26T07:44:36.098Z,0.29
2017-08-26T07:45:29.982Z,0.28
2017-08-26T07:46:19.168Z,0.28
2017-08-26T07:47:08.194Z,0.27
2017-08-26T07:48:02.265Z,0.27
2017-08-26T07:48:56.313Z,0.28
2017-08-26T07:49:51.434Z,0.28
2017-08-26T07:50:40.499Z,0.31
2017-08-26T07:51:34.435Z,0.31
2017-08-26T07:52:22.604Z,0.31
2017-08-26T07:53:22.594Z,0.31
2017-08-26T07:54:17.661Z,0.31
2017-08-26T07:55:06.722Z,0.32
2017-08-26T07:56:06.798Z,0.33
2017-08-26T07:56:55.805Z,0.33
2017-08-26T07:57:49.795Z,0.45
2017-08-26T07:58:43.913Z,0.39
2017-08-26T07:59:31.970Z,0.37
2017-08-26T08:00:26.031Z,0.38
2017-08-26T08:01:21.060Z,0.40
2017-08-26T08:02:10.174Z,0.37
2017-08-26T08:02:59.162Z,0.34
2017-08-26T08:03:53.253Z,0.31
2017-08-26T08:04:47.345Z,0.39
2017-08-26T08:05:41.400Z,0.45
2017-08-26T08:06:36.402Z,0.49
2017-08-26T08:07:31.459Z,0.51
2017-08-26T08:08:31.624Z,0.47
2017-08-26T08:09:26.696Z,0.50
2017-08-26T08:10:21.682Z,0.49
2017-08-26T08:11:16.821Z,0.49
2017-08-26T08:12:05.922Z,0.47
2017-08-26T08:13:06.046Z,0.49
2017-08-26T08:14:00.037Z,0.49
2017-08-26T08:14:54.077Z,0.47
2017-08-26T08:15:48.169Z,0.47
2017-08-26T08:16:42.249Z,0.49
2017-08-26T08:17:43.320Z,0.49
2017-08-26T08:18:31.353Z,0.49
2017-08-26T08:19:26.425Z,0.50
2017-08-26T08:20:15.582Z,0.52
2017-08-26T08:21:09.613Z,0.52
2017-08-26T08:21:58.671Z,0.52
2017-08-26T08:22:47.715Z,0.51
2017-08-26T08:23:41.838Z,0.52
2017-08-26T08:24:41.842Z,0.47
2017-08-26T08:25:36.040Z,0.44
2017-08-26T08:26:30.979Z,0.44
2017-08-26T08:27:25.102Z,0.42
2017-08-26T08:28:20.214Z,0.49
2017-08-26T08:29:14.337Z,0.52
2017-08-26T08:30:09.309Z,0.45
2017-08-26T08:31:03.434Z,0.43
2017-08-26T08:31:58.598Z,0.42
2017-08-26T08:32:47.477Z,0.40
2017-08-26T08:33:41.745Z,0.39
2017-08-26T08:34:35.594Z,0.44
2017-08-26T08:35:29.660Z,0.45
2017-08-26T08:36:29.672Z,0.48
2017-08-26T08:37:23.755Z,0.52
2017-08-26T08:38:12.896Z,0.51
2017-08-26T08:39:00.906Z,0.48
2017-08-26T08:39:50.068Z,0.53
2017-08-26T08:40:39.106Z,0.50
2017-08-26T08:41:27.250Z,0.56
2017-08-26T08:42:21.391Z,0.54
2017-08-26T08:43:09.352Z,0.52
2017-08-26T08:44:09.438Z,0.53
2017-08-26T08:45:09.395Z,0.55
2017-08-26T08:46:03.559Z,0.55
2017-08-26T08:46:57.677Z,0.52
2017-08-26T08:47:51.686Z,0.55
2017-08-26T08:48:51.774Z,0.46
2017-08-26T08:49:52.067Z,0.55
2017-08-26T08:50:45.895Z,0.56
2017-08-26T08:51:40.148Z,0.56
2017-08-26T08:52:28.064Z,0.51
2017-08-26T08:53:22.136Z,0.50
2017-08-26T08:54:22.306Z,0.62
2017-08-26T08:55:11.319Z,0.60
2017-08-26T08:56:05.451Z,0.50
2017-08-26T08:56:59.467Z,0.44
2017-08-26T08:57:48.571Z,0.42
2017-08-26T08:58:42.544Z,0.41
2017-08-26T08:59:36.660Z,0.42
2017-08-26T09:00:31.805Z,0.44
2017-08-26T09:01:19.911Z,0.49
2017-08-26T09:02:14.925Z,0.58
2017-08-26T09:03:10.095Z,0.66
2017-08-26T09:04:05.017Z,0.67
2017-08-26T09:05:00.187Z,0.52
2017-08-26T09:05:49.426Z,0.58
2017-08-26T09:06:49.411Z,0.63
2017-08-26T09:07:43.367Z,0.63
2017-08-26T09:08:43.525Z,0.64
2017-08-26T09:09:38.720Z,0.63
2017-08-26T09:10:32.629Z,0.63
2017-08-26T09:11:27.765Z,0.65
2017-08-26T09:12:16.762Z,0.66
2017-08-26T09:13:10.959Z,0.65
2017-08-26T09:13:59.019Z,0.65
2017-08-26T09:14:48.064Z,0.65
2017-08-26T09:15:42.161Z,0.56
2017-08-26T09:16:31.228Z,0.61
2017-08-26T09:17:19.390Z,0.65
2017-08-26T09:18:14.477Z,0.63
2017-08-26T09:19:08.461Z,0.53
2017-08-26T09:19:56.581Z,0.52
2017-08-26T09:20:50.595Z,0.44
2017-08-26T09:21:50.888Z,0.65
2017-08-26T09:22:45.691Z,0.53
2017-08-26T09:23:34.764Z,0.61
2017-08-26T09:24:29.751Z,0.44
2017-08-26T09:25:19.009Z,0.47
2017-08-26T09:26:18.949Z,0.47
2017-08-26T09:27:08.087Z,0.42
2017-08-26T09:28:02.145Z,0.46
2017-08-26T09:29:02.219Z,0.51
2017-08-26T09:29:56.262Z,0.53
2017-08-26T09:30:51.277Z,0.51
2017-08-26T09:31:45.559Z,0.44
2017-08-26T09:32:45.489Z,0.45
2017-08-26T09:33:39.528Z,0.45
2017-08-26T09:34:27.601Z,0.48
2017-08-26T09:35:15.578Z,0.47
2017-08-26T09:36:09.702Z,0.72
2017-08-26T09:37:03.724Z,0.61
2017-08-26T09:37:57.843Z,0.46
2017-08-26T09:38:51.849Z,0.51
2017-08-26T09:39:45.837Z,0.55
2017-08-26T09:40:35.067Z,0.51
2017-08-26T09:41:29.091Z,0.50
2017-08-26T09:42:18.154Z,0.46
2017-08-26T09:43:13.156Z,0.46
2017-08-26T09:44:07.255Z,0.48
2017-08-26T09:45:02.246Z,0.49
2017-08-26T09:45:57.367Z,0.46
2017-08-26T09:46:46.526Z,0.46
2017-08-26T09:47:41.379Z,0.47
2017-08-26T09:48:36.489Z,0.46
2017-08-26T09:49:25.620Z,0.51
2017-08-26T09:50:14.642Z,0.49
2017-08-26T09:51:14.690Z,0.49
2017-08-26T09:52:14.815Z,0.50
2017-08-26T09:53:08.801Z,0.51
2017-08-26T09:54:02.988Z,0.49
2017-08-26T09:54:56.948Z,0.52
2017-08-26T09:55:46.142Z,0.52
2017-08-26T09:56:35.205Z,0.57
2017-08-26T09:57:29.263Z,0.51
2017-08-26T09:58:23.275Z,0.52
2017-08-26T09:59:17.359Z,0.52
2017-08-26T10:00:18.325Z,0.55
2017-08-26T10:01:19.405Z,0.51
2017-08-26T10:02:07.606Z,0.49
2017-08-26T10:02:56.682Z,0.53
2017-08-26T10:03:50.742Z,0.56
2017-08-26T10:04:44.684Z,0.43
2017-08-26T10:05:39.787Z,0.42
2017-08-26T10:06:33.952Z,0.38
2017-08-26T10:07:23.028Z,0.37
2017-08-26T10:08:22.988Z,0.37
2017-08-26T10:09:12.133Z,0.39
2017-08-26T10:10:12.323Z,0.40
2017-08-26T10:11:07.221Z,0.41
2017-08-26T10:12:01.292Z,0.42
2017-08-26T10:12:55.391Z,0.42
2017-08-26T10:13:49.482Z,0.41
2017-08-26T10:14:44.446Z,0.41
2017-08-26T10:15:38.540Z,0.39
2017-08-26T10:16:38.582Z,0.38
2017-08-26T10:17:27.750Z,0.37
2017-08-26T10:18:21.659Z,0.38
2017-08-26T10:19:21.759Z,0.39
2017-08-26T10:20:15.812Z,0.42
2017-08-26T10:21:04.968Z,0.57
2017-08-26T10:21:59.984Z,0.54
2017-08-26T10:22:49.005Z,0.62
2017-08-26T10:23:37.078Z,0.64
2017-08-26T10:24:31.106Z,0.46
2017-08-26T10:25:26.242Z,0.47
2017-08-26T10:26:15.390Z,0.41
2017-08-26T10:27:09.272Z,0.39
2017-08-26T10:28:09.446Z,0.38
2017-08-26T10:29:03.417Z,0.36
2017-08-26T10:29:51.452Z,0.38
2017-08-26T10:30:40.546Z,0.38
2017-08-26T10:31:34.614Z,0.39
2017-08-26T10:32:23.701Z,0.42
2017-08-26T10:33:17.749Z,0.52
2017-08-26T10:34:11.922Z,0.54
2017-08-26T10:35:05.855Z,0.56
2017-08-26T10:36:00.933Z,0.67
2017-08-26T10:36:55.002Z,0.69
2017-08-26T10:37:44.044Z,0.62
2017-08-26T10:38:38.081Z,0.45
2017-08-26T10:39:27.161Z,0.39
2017-08-26T10:40:27.297Z,0.38
2017-08-26T10:41:21.308Z,0.43
2017-08-26T10:42:16.461Z,0.43
2017-08-26T10:43:05.512Z,0.41
2017-08-26T10:43:54.668Z,0.44
2017-08-26T10:44:49.651Z,0.41
2017-08-26T10:45:49.876Z,0.45
2017-08-26T10:46:43.868Z,0.39
2017-08-26T10:47:38.970Z,0.38
2017-08-26T10:48:32.930Z,0.37
2017-08-26T10:49:34.026Z,0.41
2017-08-26T10:50:29.108Z,0.50
2017-08-26T10:51:18.129Z,0.49
2017-08-26T10:52:18.138Z,0.47
2017-08-26T10:53:13.216Z,0.46
2017-08-26T10:54:07.355Z,0.51
2017-08-26T10:54:56.354Z,0.52
2017-08-26T10:55:45.448Z,0.51
2017-08-26T10:56:40.496Z,0.48
2017-08-26T10:57:35.521Z,0.49
2017-08-26T10:58:29.661Z,0.63
2017-08-26T10:59:23.752Z,0.53
2017-08-26T11:00:17.863Z,0.45
2017-08-26T11:01:12.937Z,0.44
2017-08-26T11:02:06.997Z,0.41
2017-08-26T11:03:01.005Z,0.39
2017-08-26T11:03:55.048Z,0.38
2017-08-26T11:04:49.098Z,0.43
2017-08-26T11:05:38.313Z,0.40
2017-08-26T11:06:33.293Z,0.39
2017-08-26T11:07:33.345Z,0.39
2017-08-26T11:08:22.444Z,0.41
2017-08-26T11:09:16.578Z,0.49
2017-08-26T11:10:16.633Z,0.52
2017-08-26T11:11:05.723Z,0.49
2017-08-26T11:12:00.702Z,0.52
2017-08-26T11:12:55.816Z,0.43
2017-08-26T11:13:44.820Z,0.40
2017-08-26T11:14:45.041Z,0.39
2017-08-26T11:15:45.042Z,0.37
2017-08-26T11:16:45.053Z,0.37
2017-08-26T11:17:33.119Z,0.37
2017-08-26T11:18:22.180Z,0.39
2017-08-26T11:19:10.254Z,0.42
2017-08-26T11:20:04.378Z,0.55
2017-08-26T11:20:58.485Z,0.57
2017-08-26T11:21:47.654Z,0.56
2017-08-26T11:22:36.681Z,0.55
2017-08-26T11:23:24.784Z,0.55
2017-08-26T11:24:18.842Z,0.57
2017-08-26T11:25:18.921Z,0.65
2017-08-26T11:26:07.918Z,0.68
2017-08-26T11:27:02.103Z,0.65
2017-08-26T11:27:56.131Z,0.56
2017-08-26T11:28:50.238Z,0.52
2017-08-26T11:29:38.296Z,0.49
2017-08-26T11:30:32.402Z,0.54
2017-08-26T11:31:26.489Z,0.52
2017-08-26T11:32:26.509Z,0.54
2017-08-26T11:33:26.685Z,0.66
2017-08-26T11:34:15.651Z,0.65
2017-08-26T11:35:10.815Z,0.57
2017-08-26T11:36:00.021Z,0.51
2017-08-26T11:36:53.915Z,0.52
2017-08-26T11:37:48.995Z,0.48
2017-08-26T11:38:43.175Z,0.47
2017-08-26T11:39:38.130Z,0.49
2017-08-26T11:40:38.288Z,0.59
2017-08-26T11:41:38.315Z,0.62
2017-08-26T11:42:32.367Z,0.46
2017-08-26T11:43:21.460Z,0.41
2017-08-26T11:44:21.574Z,0.40
2017-08-26T11:45:16.573Z,0.41
2017-08-26T11:46:17.734Z,0.36
2017-08-26T11:47:17.790Z,0.32
2017-08-26T11:48:11.919Z,0.29